Time;durP1;ratioP1;P1;durP2;ratioP2;P2;SDS_P1;SDS_P2;PMS_P1;PMS_P2;Temp;Humidity;BMP_temperature;BMP_pressure;BME280_temperature;BME280_humidity;BME280_pressure;Samples;Min_cycle;Max_cycle;Signal;HPM_P1;HPM_P2
2021/12/23 00:00:17;;;;;;;32.13;12.23;;;;;;;-8.84;95.86;95801.53;5108371;28;20047;-76
2021/12/23 00:03:03;;;;;;;29.30;11.25;;;;;;;-8.92;95.36;95790.28;5093848;28;20056;-76
2021/12/23 00:05:29;;;;;;;27.63;10.45;;;;;;;-8.95;95.85;95785.47;5093590;28;20047;-76
2021/12/23 00:07:55;;;;;;;26.98;10.95;;;;;;;-9.07;95.52;95789.13;5111175;28;20039;-77
2021/12/23 00:10:20;;;;;;;26.95;9.32;;;;;;;-9.08;96.16;95797.72;5088563;28;20489;-76
2021/12/23 00:12:46;;;;;;;24.70;9.98;;;;;;;-9.06;95.21;95780.53;5110564;27;20047;-76
2021/12/23 00:18:16;;;;;;;23.80;9.40;;;;;;;-9.14;95.21;95782.97;5049969;28;20056;-76
2021/12/23 00:23:28;;;;;;;34.47;13.50;;;;;;;-9.21;95.12;95781.94;5096483;28;20051;-75
2021/12/23 00:26:00;;;;;;;34.78;10.98;;;;;;;-9.26;95.00;95775.50;5099911;28;20044;-76
2021/12/23 00:28:26;;;;;;;29.50;11.13;;;;;;;-9.34;94.88;95770.28;5092250;28;20088;-75
2021/12/23 00:30:52;;;;;;;42.08;18.60;;;;;;;-9.41;96.00;95781.97;5091494;28;20127;-75
2021/12/23 00:33:18;;;;;;;41.15;18.15;;;;;;;-9.31;94.86;95776.84;5077942;28;20513;-76
2021/12/23 00:35:44;;;;;;;35.28;16.13;;;;;;;-9.33;95.42;95769.34;5091150;28;20047;-75
2021/12/23 00:38:24;;;;;;;33.63;14.52;;;;;;;-9.37;94.21;95772.31;5094544;28;20044;-76
2021/12/23 00:40:51;;;;;;;32.25;12.85;;;;;;;-9.39;94.78;95772.47;5073281;28;20044;-76
2021/12/23 00:43:17;;;;;;;32.15;11.75;;;;;;;-9.41;95.06;95776.88;5104111;27;20048;-76
2021/12/23 00:45:43;;;;;;;25.42;9.32;;;;;;;-9.39;94.73;95775.03;5108141;27;20401;-76
2021/12/23 00:48:09;;;;;;;29.70;9.85;;;;;;;-9.44;93.43;95772.06;5108162;27;20046;-77
2021/12/23 00:50:34;;;;;;;25.02;10.00;;;;;;;-9.45;94.09;95770.44;5124013;27;20039;-76
2021/12/23 00:53:05;;;;;;;23.35;9.00;;;;;;;-9.46;94.16;95758.69;5114490;27;20075;-76
2021/12/23 00:55:30;;;;;;;26.77;11.57;;;;;;;-9.54;93.83;95766.19;5090848;28;20040;-76
2021/12/23 00:57:56;;;;;;;32.10;12.90;;;;;;;-9.58;95.05;95756.28;5076898;28;20044;-76
2021/12/23 01:00:21;;;;;;;33.35;11.43;;;;;;;-9.56;94.85;95758.69;5098343;28;20429;-78
2021/12/23 01:02:48;;;;;;;30.30;11.65;;;;;;;-9.69;94.53;95753.91;5094760;28;20048;-75
2021/12/23 01:05:17;;;;;;;35.78;12.35;;;;;;;-9.70;94.31;95749.72;5092906;28;20035;-76
2021/12/23 01:07:43;;;;;;;29.48;10.98;;;;;;;-9.72;94.79;95743.16;5098329;27;20031;-77
2021/12/23 01:10:09;;;;;;;33.17;11.00;;;;;;;-9.76;94.93;95735.00;5118118;27;20039;-76
2021/12/23 01:12:42;;;;;;;31.50;10.75;;;;;;;-9.76;94.95;95737.56;5103622;27;20052;-76
2021/12/23 01:18:11;;;;;;;38.40;10.10;;;;;;;-9.69;93.85;95738.63;5081248;28;20048;-77
2021/12/23 01:20:39;;;;;;;31.73;10.60;;;;;;;-9.76;93.82;95743.44;5110651;28;20523;-77
2021/12/23 01:23:10;;;;;;;23.90;10.13;;;;;;;-9.80;94.24;95743.88;5095281;28;20040;-77
2021/12/23 01:25:38;;;;;;;27.25;9.13;;;;;;;-9.80;94.00;95746.41;5090205;28;20572;-75
2021/12/23 01:28:06;;;;;;;24.52;9.90;;;;;;;-9.92;93.95;95746.56;5105342;27;20066;-75
2021/12/23 01:30:33;;;;;;;25.42;9.85;;;;;;;-9.95;95.09;95749.38;5119392;27;20036;-76
2021/12/23 01:32:59;;;;;;;32.35;10.27;;;;;;;-9.75;94.67;95749.34;5108501;27;20094;-74
2021/12/23 01:35:27;;;;;;;29.02;10.90;;;;;;;-9.66;94.06;95748.53;5105947;27;20051;-75
2021/12/23 01:37:53;;;;;;;30.48;11.55;;;;;;;-9.64;94.18;95756.84;5095435;28;20522;-76
2021/12/23 01:40:20;;;;;;;30.13;10.95;;;;;;;-9.63;94.42;95758.44;5081362;28;20171;-77
2021/12/23 01:42:46;;;;;;;24.08;9.85;;;;;;;-9.56;93.84;95753.59;5090138;28;20056;-77
2021/12/23 01:45:15;;;;;;;29.77;10.00;;;;;;;-9.54;93.70;95750.91;5099802;28;20036;-76
2021/12/23 01:47:42;;;;;;;25.50;9.48;;;;;;;-9.54;93.85;95756.00;5096112;27;20115;-76
2021/12/23 01:50:10;;;;;;;25.08;9.95;;;;;;;-9.53;94.28;95742.34;5107695;27;20044;-76
2021/12/23 01:52:38;;;;;;;27.83;9.43;;;;;;;-9.47;94.78;95747.66;5099038;27;20043;-76
2021/12/23 01:55:05;;;;;;;27.30;10.95;;;;;;;-9.40;93.60;95755.56;5118772;27;20108;-76
2021/12/23 01:57:32;;;;;;;26.25;10.38;;;;;;;-9.40;94.73;95753.00;5103230;28;20173;-74
2021/12/23 01:59:58;;;;;;;26.13;10.15;;;;;;;-9.38;94.59;95753.66;5093040;28;20050;-76
2021/12/23 02:02:24;;;;;;;24.83;10.07;;;;;;;-9.36;94.91;95749.25;5097011;28;20032;-76
2021/12/23 02:04:49;;;;;;;29.45;10.30;;;;;;;-9.26;94.02;95739.81;5089350;28;20101;-76
2021/12/23 02:07:15;;;;;;;34.00;10.02;;;;;;;-9.30;94.81;95728.28;5103483;28;20048;-77
2021/12/23 02:09:41;;;;;;;26.85;11.00;;;;;;;-9.25;94.43;95731.22;5118531;27;20043;-76
2021/12/23 02:12:07;;;;;;;34.00;10.18;;;;;;;-9.12;94.86;95725.00;5089978;28;20051;-76
2021/12/23 02:14:32;;;;;;;26.80;9.40;;;;;;;-9.02;93.64;95735.97;5102439;27;20055;-75
2021/12/23 02:16:58;;;;;;;27.90;10.13;;;;;;;-8.98;94.00;95721.97;5100355;27;20040;-76
2021/12/23 02:19:23;;;;;;;29.98;9.82;;;;;;;-9.00;94.69;95723.88;5089843;28;20047;-76
2021/12/23 02:21:49;;;;;;;23.17;9.88;;;;;;;-8.93;93.83;95717.25;5089316;28;20040;-76
2021/12/23 02:24:16;;;;;;;31.92;9.93;;;;;;;-8.98;93.68;95711.75;5089161;28;20054;-76
2021/12/23 02:26:42;;;;;;;28.50;10.43;;;;;;;-8.98;94.86;95708.41;5070738;28;20048;-74
2021/12/23 02:29:09;;;;;;;26.73;9.65;;;;;;;-8.95;95.48;95706.41;5108735;27;20047;-76
2021/12/23 02:31:35;;;;;;;24.13;9.55;;;;;;;-8.94;94.93;95702.88;5114055;27;20051;-76
2021/12/23 02:34:01;;;;;;;31.85;10.07;;;;;;;-8.91;94.51;95692.41;5101972;28;20036;-76
2021/12/23 02:36:27;;;;;;;34.20;10.32;;;;;;;-8.99;94.83;95684.69;5111445;27;20047;-76
2021/12/23 02:38:53;;;;;;;34.83;10.95;;;;;;;-9.07;94.75;95687.13;5076502;28;20097;-76
2021/12/23 02:41:19;;;;;;;24.25;10.10;;;;;;;-9.14;95.28;95674.13;5094523;28;20111;-75
2021/12/23 02:43:45;;;;;;;25.75;9.68;;;;;;;-9.20;95.58;95679.03;5109347;27;20043;-75
2021/12/23 02:46:11;;;;;;;30.05;11.13;;;;;;;-9.09;94.77;95663.53;5092324;28;20547;-74
2021/12/23 02:48:38;;;;;;;35.85;10.05;;;;;;;-9.23;95.08;95663.06;5114654;27;20036;-75
2021/12/23 02:51:10;;;;;;;30.00;10.15;;;;;;;-9.06;95.53;95663.25;5126370;27;20047;-76
2021/12/23 02:53:37;;;;;;;32.97;11.57;;;;;;;-9.10;95.33;95656.81;5089399;28;20192;-76
2021/12/23 02:56:05;;;;;;;33.50;11.40;;;;;;;-9.09;95.29;95653.34;5090650;28;20040;-75
2021/12/23 02:58:32;;;;;;;28.67;10.35;;;;;;;-9.13;95.56;95652.03;5093073;27;20036;-76
2021/12/23 03:01:01;;;;;;;32.10;10.20;;;;;;;-9.14;95.20;95645.31;5108253;27;20082;-75
2021/12/23 03:03:26;;;;;;;30.52;10.18;;;;;;;-9.10;95.89;95652.53;5106642;28;20065;-76
2021/12/23 03:05:56;;;;;;;23.85;10.15;;;;;;;-9.15;95.83;95653.88;5091428;28;20051;-76
2021/12/23 03:08:30;;;;;;;31.42;10.43;;;;;;;-9.11;95.52;95655.22;5120692;27;20099;-75
2021/12/23 03:10:55;;;;;;;36.70;10.30;;;;;;;-9.15;95.38;95651.34;5104143;28;20044;-76
2021/12/23 03:13:21;;;;;;;26.65;11.07;;;;;;;-9.26;96.25;95657.44;5089795;28;20054;-76
2021/12/23 03:15:46;;;;;;;28.02;10.85;;;;;;;-9.33;97.31;95662.31;5087967;28;20040;-75
2021/12/23 03:18:13;;;;;;;27.13;9.82;;;;;;;-9.24;96.61;95666.56;5116036;27;20130;-76
2021/12/23 03:20:38;;;;;;;32.70;8.82;;;;;;;-8.98;95.66;95670.97;5093653;28;20044;-75
2021/12/23 03:23:04;;;;;;;30.02;10.07;;;;;;;-9.04;95.08;95666.44;5091001;28;20156;-74
2021/12/23 03:25:29;;;;;;;23.15;8.70;;;;;;;-8.94;94.49;95662.06;5103392;28;20137;-75
2021/12/23 03:27:55;;;;;;;30.00;9.68;;;;;;;-8.92;95.16;95655.09;5093561;28;20572;-76
2021/12/23 03:30:20;;;;;;;26.40;10.63;;;;;;;-8.88;93.88;95653.88;5107966;27;20042;-75
2021/12/23 03:32:46;;;;;;;28.77;10.93;;;;;;;-9.07;95.08;95651.44;5098617;27;20463;-76
2021/12/23 03:35:12;;;;;;;31.90;10.57;;;;;;;-9.13;95.53;95641.81;5076584;28;20059;-75
2021/12/23 03:37:37;;;;;;;26.33;9.52;;;;;;;-9.08;95.41;95634.53;5107306;27;20044;-76
2021/12/23 03:40:05;;;;;;;28.63;10.98;;;;;;;-8.98;95.34;95640.34;5104557;27;20101;-75
2021/12/23 03:42:30;;;;;;;28.95;10.65;;;;;;;-9.02;95.68;95633.97;5088138;28;20032;-76
2021/12/23 03:44:56;;;;;;;28.20;9.88;;;;;;;-8.89;94.81;95629.31;5088932;28;20040;-75
2021/12/23 03:47:21;;;;;;;25.73;10.27;;;;;;;-8.83;94.59;95627.09;5087411;28;20473;-75
2021/12/23 03:49:47;;;;;;;29.48;10.18;;;;;;;-8.95;94.94;95627.34;5100365;27;20443;-75
2021/12/23 03:52:13;;;;;;;27.77;9.15;;;;;;;-9.12;95.61;95620.47;5116487;27;20432;-75
2021/12/23 03:54:39;;;;;;;26.67;11.00;;;;;;;-9.21;96.06;95623.88;5102057;28;20142;-75
2021/12/23 03:57:04;;;;;;;28.23;10.43;;;;;;;-9.12;95.61;95613.63;5087846;28;20047;-75
2021/12/23 03:59:30;;;;;;;25.35;9.90;;;;;;;-8.93;94.54;95604.25;5104258;28;20065;-75
2021/12/23 04:01:56;;;;;;;31.38;10.02;;;;;;;-8.93;94.28;95612.69;5110751;28;20063;-75
2021/12/23 04:04:22;;;;;;;21.13;10.23;;;;;;;-8.98;94.94;95609.75;5085319;28;20048;-75
2021/12/23 04:06:47;;;;;;;32.22;10.98;;;;;;;-9.18;95.70;95609.09;5097219;28;20417;-75
2021/12/23 04:09:13;;;;;;;28.10;10.52;;;;;;;-9.35;96.09;95597.94;5110458;28;20039;-76
2021/12/23 04:11:38;;;;;;;24.63;10.85;;;;;;;-9.35;96.30;95597.94;5089317;28;20048;-75
2021/12/23 04:14:04;;;;;;;33.10;12.25;;;;;;;-9.24;95.84;95595.19;5087749;28;20040;-76
2021/12/23 04:16:30;;;;;;;34.80;10.63;;;;;;;-9.34;96.56;95599.53;5108212;28;20145;-76
2021/12/23 04:18:56;;;;;;;31.20;9.90;;;;;;;-9.46;96.69;95595.59;5102949;28;20043;-74
2021/12/23 04:21:22;;;;;;;24.98;10.07;;;;;;;-9.33;98.00;95601.13;5111530;28;20043;-76
2021/12/23 04:23:48;;;;;;;27.08;10.48;;;;;;;-9.08;96.18;95593.72;5107484;28;20043;-75
2021/12/23 04:26:13;;;;;;;36.13;10.85;;;;;;;-9.06;95.29;95586.75;5103830;28;20043;-76
2021/12/23 04:28:46;;;;;;;33.95;11.50;;;;;;;-9.07;94.60;95585.13;5083603;28;20525;-76
2021/12/23 04:31:16;;;;;;;33.10;10.93;;;;;;;-9.08;94.53;95578.44;5097638;28;20051;-76
2021/12/23 04:33:47;;;;;;;32.38;10.95;;;;;;;-9.07;95.26;95575.72;5108700;28;20043;-75
2021/12/23 04:36:13;;;;;;;34.05;11.18;;;;;;;-9.09;94.29;95564.09;5111931;28;20101;-75
2021/12/23 04:38:40;;;;;;;32.15;11.38;;;;;;;-9.24;95.31;95569.69;5114307;28;20035;-76
2021/12/23 04:41:06;;;;;;;37.22;10.15;;;;;;;-9.23;95.07;95561.09;5114207;28;20040;-76
2021/12/23 04:43:31;;;;;;;26.27;10.02;;;;;;;-9.32;95.68;95556.88;5095311;28;20071;-76
2021/12/23 04:45:57;;;;;;;30.48;10.45;;;;;;;-9.32;96.02;95556.88;5082664;28;20064;-75
2021/12/23 04:48:22;;;;;;;36.72;10.40;;;;;;;-9.26;94.85;95541.00;5089509;28;20042;-76
2021/12/23 04:50:48;;;;;;;32.65;10.88;;;;;;;-9.41;95.80;95537.34;5100904;28;20042;-75
2021/12/23 04:53:13;;;;;;;33.20;10.20;;;;;;;-9.45;95.94;95543.66;5103352;28;20040;-75
2021/12/23 04:55:39;;;;;;;30.25;10.45;;;;;;;-9.32;95.27;95536.47;5099434;28;20113;-75
2021/12/23 04:58:05;;;;;;;23.08;9.82;;;;;;;-9.31;93.86;95538.09;5100637;28;20255;-75
2021/12/23 05:00:30;;;;;;;36.25;10.32;;;;;;;-9.40;94.54;95532.09;5095329;28;20040;-75
2021/12/23 05:02:55;;;;;;;27.60;10.55;;;;;;;-9.44;95.46;95532.53;5091701;28;20051;-75
2021/12/23 05:05:21;;;;;;;38.33;8.88;;;;;;;-9.44;95.99;95527.44;5090876;28;20036;-75
2021/12/23 05:07:48;;;;;;;29.23;11.25;;;;;;;-9.40;96.38;95533.84;5095323;28;20104;-75
2021/12/23 05:10:14;;;;;;;24.65;10.05;;;;;;;-9.38;95.96;95531.94;5090708;28;20493;-76
2021/12/23 05:12:45;;;;;;;33.83;9.95;;;;;;;-9.41;94.98;95522.88;5119123;27;20043;-75
2021/12/23 05:15:13;;;;;;;31.30;9.57;;;;;;;-9.55;95.74;95532.72;5107337;27;20488;-75
2021/12/23 05:17:39;;;;;;;42.30;11.18;;;;;;;-9.68;96.93;95533.91;5102100;27;20382;-75
2021/12/23 05:20:06;;;;;;;41.60;12.05;;;;;;;-9.84;97.01;95531.16;5095563;28;20057;-75
2021/12/23 05:22:32;;;;;;;33.63;11.57;;;;;;;-9.96;98.27;95543.28;5110986;28;20071;-75
2021/12/23 05:24:58;;;;;;;27.60;10.98;;;;;;;-9.65;96.83;95540.47;5094507;28;20121;-75
2021/12/23 05:27:24;;;;;;;28.58;10.95;;;;;;;-9.68;95.82;95551.72;5090739;28;20651;-75
2021/12/23 05:29:49;;;;;;;28.63;10.30;;;;;;;-9.71;96.37;95546.94;5100709;28;20400;-75
2021/12/23 05:32:15;;;;;;;29.15;10.32;;;;;;;-9.76;95.12;95544.00;5090990;28;20039;-75
2021/12/23 05:34:41;;;;;;;32.00;10.80;;;;;;;-9.79;95.76;95546.81;5123724;27;20043;-75
2021/12/23 05:37:07;;;;;;;30.40;8.90;;;;;;;-9.81;96.10;95535.97;5117290;27;20039;-75
2021/12/23 05:39:32;;;;;;;26.17;10.27;;;;;;;-9.79;95.54;95549.38;5086625;28;20056;-75
2021/12/23 05:41:58;;;;;;;27.75;9.75;;;;;;;-9.79;95.21;95550.16;5090076;28;20196;-75
2021/12/23 05:44:24;;;;;;;28.45;8.88;;;;;;;-9.60;94.16;95549.25;5095547;28;20485;-75
2021/12/23 05:46:49;;;;;;;33.83;10.90;;;;;;;-9.50;94.32;95548.41;5093568;28;20119;-75
2021/12/23 05:49:15;;;;;;;26.90;9.80;;;;;;;-9.67;95.18;95548.22;5090165;28;20047;-75
2021/12/23 05:51:41;;;;;;;28.52;10.13;;;;;;;-9.67;95.79;95543.13;5098939;27;20047;-75
2021/12/23 05:54:06;;;;;;;30.83;11.07;;;;;;;-9.50;94.47;95543.31;5115529;27;20494;-75
2021/12/23 05:56:32;;;;;;;23.65;9.85;;;;;;;-9.53;93.21;95544.38;5107359;27;20053;-74
2021/12/23 05:58:57;;;;;;;31.15;11.10;;;;;;;-9.61;93.92;95547.66;5095299;28;20117;-75
2021/12/23 06:01:23;;;;;;;46.28;13.68;;;;;;;-9.62;95.35;95540.97;5089855;28;20059;-75
2021/12/23 06:03:48;;;;;;;28.60;11.18;;;;;;;-9.63;95.96;95539.34;5089679;28;20071;-75
2021/12/23 06:06:15;;;;;;;35.05;11.20;;;;;;;-9.72;95.79;95532.56;5089830;28;20475;-75
2021/12/23 06:08:41;;;;;;;33.47;12.73;;;;;;;-9.72;95.78;95530.03;5097801;28;20040;-75
2021/12/23 06:11:07;;;;;;;39.05;11.60;;;;;;;-9.61;95.44;95517.09;5109072;28;20040;-76
2021/12/23 06:13:33;;;;;;;40.03;13.43;;;;;;;-9.61;94.93;95516.28;5113846;27;20047;-76
2021/12/23 06:15:58;;;;;;;37.42;11.30;;;;;;;-9.59;94.03;95520.28;5123803;27;20451;-76
2021/12/23 06:18:24;;;;;;;30.92;10.88;;;;;;;-9.67;94.83;95522.75;5106737;27;20043;-76
2021/12/23 06:20:50;;;;;;;37.33;11.75;;;;;;;-9.76;96.18;95528.72;5119206;27;20055;-77
2021/12/23 06:23:16;;;;;;;36.95;12.30;;;;;;;-9.94;95.62;95532.03;5089316;28;20036;-76
2021/12/23 06:25:41;;;;;;;27.77;9.85;;;;;;;-9.87;95.91;95531.44;5091447;28;20052;-76
2021/12/23 06:28:07;;;;;;;34.15;11.43;;;;;;;-9.79;95.23;95539.19;5094364;28;20048;-76
2021/12/23 06:30:33;;;;;;;28.30;10.48;;;;;;;-9.78;94.41;95551.78;5091718;27;20040;-76
2021/12/23 06:32:59;;;;;;;23.33;9.88;;;;;;;-9.65;94.25;95556.53;5109136;27;20885;-76
2021/12/23 06:35:27;;;;;;;20.58;9.35;;;;;;;-9.67;93.95;95548.22;5099752;27;20067;-76
2021/12/23 06:37:54;;;;;;;34.40;11.43;;;;;;;-9.67;93.87;95548.22;5112236;27;20538;-76
2021/12/23 06:40:21;;;;;;;24.95;9.63;;;;;;;-9.62;95.00;95551.16;5105266;27;20515;-76
2021/12/23 06:42:47;;;;;;;23.30;9.38;;;;;;;-9.66;93.62;95544.72;5072036;28;20055;-76
2021/12/23 06:45:13;;;;;;;26.10;9.10;;;;;;;-9.68;94.02;95546.63;5098377;28;20044;-76
2021/12/23 06:47:40;;;;;;;28.23;9.10;;;;;;;-9.74;93.96;95547.19;5107309;28;20050;-76
2021/12/23 06:50:08;;;;;;;23.85;9.65;;;;;;;-9.86;95.49;95548.34;5105698;27;20123;-76
2021/12/23 06:52:34;;;;;;;25.42;9.27;;;;;;;-9.74;94.80;95554.81;5106401;28;20524;-76
2021/12/23 06:54:59;;;;;;;24.65;8.27;;;;;;;-9.78;94.54;95550.97;5106426;28;20044;-76
2021/12/23 06:57:27;;;;;;;24.02;9.57;;;;;;;-9.81;94.10;95551.25;5106532;27;20043;-76
2021/12/23 06:59:52;;;;;;;27.98;10.52;;;;;;;-9.97;94.63;95552.69;5089134;28;20048;-75
2021/12/23 07:02:18;;;;;;;22.08;8.38;;;;;;;-9.84;94.33;95546.44;5092460;28;20036;-76
2021/12/23 07:04:45;;;;;;;18.77;7.45;;;;;;;-9.84;94.70;95546.44;5095250;28;20044;-76
2021/12/23 07:07:12;;;;;;;26.42;9.80;;;;;;;-9.88;94.11;95540.03;5088333;28;20122;-76
2021/12/23 07:09:42;;;;;;;25.55;8.98;;;;;;;-9.93;93.48;95528.53;5106652;27;20561;-76
2021/12/23 07:12:10;;;;;;;29.70;10.43;;;;;;;-10.01;94.67;95530.16;5099016;27;20048;-76
2021/12/23 07:14:37;;;;;;;25.27;9.00;;;;;;;-10.13;95.07;95537.19;5108830;27;20114;-76
2021/12/23 07:17:03;;;;;;;29.23;9.48;;;;;;;-10.03;94.78;95532.84;5100010;28;20044;-76
2021/12/23 07:19:29;;;;;;;27.85;9.05;;;;;;;-10.12;95.85;95544.69;5096016;28;20141;-75
2021/12/23 07:21:55;;;;;;;21.15;9.27;;;;;;;-9.97;95.36;95537.41;5090891;28;20180;-75
2021/12/23 07:24:21;;;;;;;23.52;9.02;;;;;;;-10.05;96.29;95550.03;5104479;27;20036;-74
2021/12/23 07:26:46;;;;;;;23.92;9.40;;;;;;;-10.02;96.24;95548.94;5107003;27;20039;-71
2021/12/23 07:29:12;;;;;;;34.58;9.55;;;;;;;-9.87;95.51;95551.81;5103315;27;20051;-76
2021/12/23 07:31:38;;;;;;;30.65;10.52;;;;;;;-9.92;95.32;95555.59;5103120;27;20048;-78
2021/12/23 07:34:03;;;;;;;32.38;9.10;;;;;;;-10.02;95.86;95557.38;5099403;28;20032;-76
2021/12/23 07:36:29;;;;;;;31.23;9.93;;;;;;;-9.72;94.14;95560.59;5105951;28;20051;-76
2021/12/23 07:38:56;;;;;;;20.65;9.70;;;;;;;-9.73;95.85;95558.19;5103488;28;20047;-76
2021/12/23 07:41:22;;;;;;;25.00;10.05;;;;;;;-9.69;95.38;95550.13;5098757;27;20204;-76
2021/12/23 07:44:06;;;;;;;30.63;10.25;;;;;;;-9.66;96.27;95554.91;5100599;27;20105;-75
2021/12/23 07:46:35;;;;;;;24.55;9.57;;;;;;;-9.53;94.70;95558.88;5065870;28;20173;-77
2021/12/23 07:49:02;;;;;;;20.63;8.38;;;;;;;-9.38;94.80;95552.34;5096743;28;20672;-77
2021/12/23 07:51:27;;;;;;;34.17;10.10;;;;;;;-9.34;94.40;95571.50;5104313;28;20059;-75
2021/12/23 07:53:53;;;;;;;22.05;9.48;;;;;;;-9.27;95.49;95584.47;5108821;28;20039;-78
2021/12/23 07:56:20;;;;;;;21.83;8.95;;;;;;;-8.91;95.76;95579.38;5101018;28;20039;-77
2021/12/23 07:58:46;;;;;;;25.17;9.75;;;;;;;-8.73;95.32;95581.94;5101177;28;20040;-76
2021/12/23 08:01:12;;;;;;;28.85;10.15;;;;;;;-8.58;95.61;95570.22;5098550;28;20491;-78
2021/12/23 08:03:37;;;;;;;30.77;10.35;;;;;;;-8.43;96.26;95573.03;5109658;28;20051;-78
2021/12/23 08:06:03;;;;;;;29.60;10.43;;;;;;;-8.16;95.93;95560.25;5106976;28;20036;-77
2021/12/23 08:08:29;;;;;;;27.27;11.00;;;;;;;-8.00;95.58;95562.91;5095917;28;20040;-78
2021/12/23 08:10:55;;;;;;;29.75;11.45;;;;;;;-7.91;96.11;95554.31;5108536;28;20518;-79
2021/12/23 08:13:21;;;;;;;39.28;12.82;;;;;;;-7.72;96.42;95555.03;5107349;28;20163;-78
2021/12/23 08:15:46;;;;;;;28.38;11.35;;;;;;;-7.65;96.71;95556.00;5110813;28;20882;-77
2021/12/23 08:18:12;;;;;;;43.75;12.85;;;;;;;-7.49;96.38;95556.06;5096040;28;20048;-76
2021/12/23 08:20:37;;;;;;;28.45;11.68;;;;;;;-7.40;96.90;95543.28;5104846;28;20542;-77
2021/12/23 08:23:03;;;;;;;27.63;11.75;;;;;;;-7.25;96.90;95534.06;5108730;28;20036;-77
2021/12/23 08:25:29;;;;;;;31.67;12.70;;;;;;;-7.15;97.31;95537.28;5108185;28;20441;-77
2021/12/23 08:27:54;;;;;;;30.42;12.30;;;;;;;-7.10;97.69;95534.22;5086622;28;20099;-75
2021/12/23 08:30:21;;;;;;;33.10;13.40;;;;;;;-6.94;97.91;95543.66;5103673;28;20051;-76
2021/12/23 08:32:48;;;;;;;32.75;12.38;;;;;;;-6.81;96.92;95538.06;5109184;28;20047;-77
2021/12/23 08:35:14;;;;;;;36.85;12.70;;;;;;;-6.62;96.50;95532.66;5106938;28;20066;-78
2021/12/23 08:37:45;;;;;;;42.42;13.02;;;;;;;-6.41;96.49;95526.22;5091675;28;20044;-75
2021/12/23 08:40:12;;;;;;;34.40;13.10;;;;;;;-6.21;95.65;95518.97;5106511;28;20668;-76
2021/12/23 08:42:38;;;;;;;43.55;13.93;;;;;;;-6.11;95.46;95519.56;5100506;28;20048;-77
2021/12/23 08:45:07;;;;;;;32.20;12.88;;;;;;;-5.98;95.46;95513.13;5093506;28;20048;-78
2021/12/23 08:47:33;;;;;;;34.10;12.88;;;;;;;-5.89;95.70;95517.22;5106407;27;20101;-78
2021/12/23 08:49:59;;;;;;;31.95;12.50;;;;;;;-5.88;95.33;95513.69;5112147;28;20112;-77
2021/12/23 08:52:25;;;;;;;29.45;11.88;;;;;;;-5.82;95.09;95518.19;5103245;28;20051;-76
2021/12/23 08:54:51;;;;;;;28.08;11.38;;;;;;;-5.77;94.93;95510.78;5105038;28;20040;-80
2021/12/23 08:57:16;;;;;;;31.90;11.27;;;;;;;-5.62;94.17;95510.06;5107067;28;20060;-77
2021/12/23 08:59:42;;;;;;;29.13;11.45;;;;;;;-5.47;94.27;95505.81;5091681;28;20361;-76
2021/12/23 09:02:08;;;;;;;31.45;11.27;;;;;;;-5.45;92.74;95503.88;5091180;28;20040;-76
2021/12/23 09:04:34;;;;;;;32.22;12.15;;;;;;;-5.37;93.92;95499.66;5102325;28;20049;-77
2021/12/23 09:07:00;;;;;;;26.85;10.88;;;;;;;-5.36;94.71;95496.94;5107388;28;20405;-77
2021/12/23 09:09:26;;;;;;;30.50;11.57;;;;;;;-5.15;93.03;95503.22;5091259;28;20055;-77
2021/12/23 09:11:51;;;;;;;25.30;10.98;;;;;;;-5.28;92.68;95508.91;5103885;28;20052;-78
2021/12/23 09:14:17;;;;;;;23.77;10.80;;;;;;;-4.96;92.21;95518.16;5112434;28;20039;-77
2021/12/23 09:16:43;;;;;;;34.13;11.23;;;;;;;-4.93;91.73;95501.63;5103722;28;20043;-78
2021/12/23 09:19:09;;;;;;;28.23;11.63;;;;;;;-4.90;91.50;95501.25;5097465;28;20052;-78
2021/12/23 09:21:36;;;;;;;23.77;10.52;;;;;;;-4.79;92.35;95488.03;5106574;28;20036;-77
2021/12/23 09:24:03;;;;;;;14.98;6.05;;;;;;;-4.80;92.40;95480.50;5109535;27;20043;-77
2021/12/23 09:26:31;;;;;;;21.70;10.10;;;;;;;-4.88;94.91;95481.38;5076899;27;20122;-75
2021/12/23 09:29:08;;;;;;;28.92;12.88;;;;;;;-4.78;93.61;95484.50;5103800;27;20047;-77
2021/12/23 09:34:17;;;;;;;36.90;12.25;;;;;;;-4.57;93.09;95485.56;5106036;28;20044;-77
2021/12/23 09:36:44;;;;;;;25.45;10.07;;;;;;;-4.57;93.77;95480.44;5106340;28;20509;-77
2021/12/23 09:39:11;;;;;;;18.58;8.70;;;;;;;-4.49;92.08;95480.38;5100059;28;20093;-77
2021/12/23 09:41:45;;;;;;;19.42;7.00;;;;;;;-4.35;90.87;95474.44;5095311;28;20040;-77
2021/12/23 09:44:11;;;;;;;13.77;6.45;;;;;;;-4.27;90.93;95475.34;5083159;28;20040;-75
2021/12/23 09:46:39;;;;;;;15.88;7.82;;;;;;;-4.11;91.07;95470.00;5098741;28;20469;-77
2021/12/23 09:49:06;;;;;;;17.83;8.32;;;;;;;-3.90;91.08;95463.34;5100085;27;20044;-77
2021/12/23 09:51:34;;;;;;;21.63;7.97;;;;;;;-3.32;89.36;95463.38;5086780;28;20051;-77
2021/12/23 09:54:05;;;;;;;15.95;6.75;;;;;;;-3.15;87.89;95474.22;5108777;27;20038;-77
2021/12/23 09:56:33;;;;;;;22.50;7.03;;;;;;;-3.13;87.91;95461.97;5095238;27;20074;-77
2021/12/23 09:58:59;;;;;;;14.32;7.20;;;;;;;-2.71;85.72;95455.19;5095057;28;20035;-76
2021/12/23 10:01:30;;;;;;;18.33;7.47;;;;;;;-2.63;86.53;95442.16;5090800;28;20044;-77
2021/12/23 10:03:56;;;;;;;13.23;6.38;;;;;;;-2.37;85.21;95440.75;5098423;28;20063;-75
2021/12/23 10:06:26;;;;;;;15.30;6.70;;;;;;;-2.30;83.63;95440.75;5092064;28;20490;-79
2021/12/23 10:08:53;;;;;;;17.25;6.47;;;;;;;-2.22;83.40;95432.09;5103751;28;20096;-81
2021/12/23 10:31:19;;;;;;;14.27;6.93;;;;;;;-1.66;83.89;95411.25;5109472;27;20032;-77
2021/12/23 10:37:05;;;;;;;15.27;7.03;;;;;;;-1.60;85.58;95402.75;5102439;28;20299;-79
2021/12/23 10:39:24;;;;;;;15.85;7.53;;;;;;;-1.62;84.74;95407.31;5112198;28;20038;-78
2021/12/23 10:41:50;;;;;;;16.80;7.43;;;;;;;-0.88;84.30;95397.84;5114927;28;20114;-78
2021/12/23 10:44:28;;;;;;;19.75;7.57;;;;;;;-0.75;83.38;95391.88;5095306;28;20115;-77
2021/12/23 10:46:54;;;;;;;18.20;7.50;;;;;;;-0.30;81.45;95383.44;5108583;28;20047;-76
2021/12/23 10:52:02;;;;;;;16.48;7.18;;;;;;;1.33;75.49;95364.88;5098787;28;20050;-77
2021/12/23 11:00:22;;;;;;;20.15;7.75;;;;;;;2.54;71.45;95343.47;5089594;28;20089;-77
2021/12/23 11:03:25;;;;;;;15.75;6.53;;;;;;;1.51;75.01;95333.00;5089793;28;20040;-76
2021/12/23 11:05:58;;;;;;;13.15;6.93;;;;;;;0.65;78.70;95327.59;5108607;27;20044;-77
2021/12/23 11:08:35;;;;;;;14.35;7.15;;;;;;;0.46;80.17;95318.94;5101801;28;20051;-77
2021/12/23 11:43:51;;;;;;;19.98;8.65;;;;;;;0.44;85.62;95285.50;5102138;28;20040;-75
2021/12/23 11:46:23;;;;;;;33.03;11.18;;;;;;;0.37;87.42;95279.56;5107003;28;20036;-76
2021/12/23 11:48:52;;;;;;;19.60;9.35;;;;;;;0.25;88.18;95281.28;5097783;28;20044;-76
2021/12/23 11:51:22;;;;;;;43.53;10.63;;;;;;;0.41;87.92;95279.97;5096543;28;20063;-77
2021/12/23 11:53:49;;;;;;;46.58;10.35;;;;;;;0.46;87.69;95274.94;5095578;28;20050;-77
2021/12/23 11:56:18;;;;;;;30.73;9.50;;;;;;;0.53;87.38;95267.91;5094376;28;20044;-75
2021/12/23 11:58:45;;;;;;;43.15;10.07;;;;;;;0.54;87.00;95279.06;5096062;28;20110;-75
2021/12/23 12:01:27;;;;;;;25.20;9.98;;;;;;;0.29;87.21;95277.28;5099153;28;20035;-75
2021/12/23 12:03:58;;;;;;;18.67;9.23;;;;;;;0.33;87.52;95265.47;5115421;28;20043;-79
2021/12/23 12:06:42;;;;;;;20.17;8.90;;;;;;;0.46;86.79;95257.63;5117025;28;20047;-77
2021/12/23 12:09:26;;;;;;;25.40;9.25;;;;;;;0.63;86.61;95254.47;5102339;28;20082;-77
2021/12/23 12:12:09;;;;;;;16.35;8.77;;;;;;;1.00;85.91;95251.94;5104172;28;20075;-79
2021/12/23 12:14:40;;;;;;;22.88;8.40;;;;;;;1.14;84.69;95253.41;5105433;28;20042;-77
2021/12/23 12:17:26;;;;;;;15.75;7.97;;;;;;;1.32;83.85;95249.22;5104564;28;20406;-77
2021/12/23 12:19:53;;;;;;;18.77;8.18;;;;;;;1.40;82.83;95241.16;5111790;28;20047;-77
2021/12/23 12:22:56;;;;;;;20.05;8.38;;;;;;;1.69;79.66;95243.97;5086734;28;20032;-78
2021/12/23 12:25:25;;;;;;;19.35;8.65;;;;;;;1.46;83.63;95240.25;5103528;27;20040;-76
2021/12/23 12:27:57;;;;;;;19.23;7.75;;;;;;;1.19;85.47;95235.41;5110761;27;20435;-79
2021/12/23 12:30:41;;;;;;;19.80;8.25;;;;;;;1.32;85.76;95233.66;5101726;28;20132;-76
2021/12/23 12:33:34;;;;;;;16.98;7.78;;;;;;;1.18;86.02;95233.81;5090232;28;20047;-75
2021/12/23 12:36:05;;;;;;;23.05;7.80;;;;;;;1.09;87.16;95240.28;5100169;28;20448;-76
2021/12/23 12:38:45;;;;;;;21.77;8.90;;;;;;;0.98;87.94;95233.25;5103126;28;20051;-77